Time;durP1;ratioP1;P1;durP2;ratioP2;P2;SDS_P1;SDS_P2;PMS_P1;PMS_P2;Temp;Humidity;BMP_temperature;BMP_pressure;BME280_temperature;BME280_humidity;BME280_pressure;Samples;Min_cycle;Max_cycle;Signal;HPM_P1;HPM_P2
2023/05/24 08:57:12;;;;;;;18.55;3.85;;;;;;;13.00;71.35;102249.69;5069329;28;20389;-70
2023/05/24 08:59:40;;;;;;;19.17;4.38;;;;;;;13.04;69.44;102259.09;5067872;28;20075;-69
2023/05/24 09:02:10;;;;;;;17.63;5.28;;;;;;;13.04;70.23;102253.66;5066842;28;20037;-70
2023/05/24 09:04:38;;;;;;;14.18;3.97;;;;;;;13.11;67.20;102249.09;5077484;28;20396;-69
2023/05/24 09:07:04;;;;;;;19.95;5.72;;;;;;;13.00;67.43;102247.81;5089460;28;20032;-70
2023/05/24 09:09:31;;;;;;;17.95;5.60;;;;;;;13.09;68.59;102251.19;5080731;28;20029;-68
2023/05/24 09:12:00;;;;;;;15.60;5.20;;;;;;;13.17;68.82;102253.69;5069166;28;20028;-69
2023/05/24 09:14:26;;;;;;;16.80;5.20;;;;;;;13.19;68.66;102257.03;5056305;28;20378;-72
2023/05/24 09:16:52;;;;;;;17.38;5.40;;;;;;;13.28;68.29;102242.19;5079674;28;20032;-69
2023/05/24 09:19:18;;;;;;;22.02;5.38;;;;;;;13.38;65.85;102249.13;5060345;28;20044;-69
2023/05/24 09:21:44;;;;;;;14.93;4.95;;;;;;;13.62;66.62;102242.22;5068995;28;20075;-72
2023/05/24 09:24:10;;;;;;;14.45;5.30;;;;;;;13.71;65.62;102253.69;5069229;28;20060;-67
2023/05/24 09:26:36;;;;;;;15.63;5.05;;;;;;;13.74;63.81;102248.69;5068426;28;20041;-68
2023/05/24 09:29:05;;;;;;;19.13;5.68;;;;;;;13.82;64.97;102245.72;5068874;28;20024;-68
2023/05/24 09:31:35;;;;;;;18.70;5.30;;;;;;;13.88;63.66;102252.19;5078992;28;20028;-67
2023/05/24 09:34:01;;;;;;;17.25;4.55;;;;;;;13.93;65.53;102249.66;5075503;28;20044;-69
2023/05/24 09:36:31;;;;;;;17.90;5.20;;;;;;;13.78;62.53;102254.53;5068435;28;20051;-68
2023/05/24 09:39:10;;;;;;;15.50;4.70;;;;;;;13.85;62.46;102249.91;5068655;28;20031;-68
2023/05/24 09:41:36;;;;;;;14.57;4.78;;;;;;;13.91;61.12;102249.06;5068535;28;20025;-69
2023/05/24 09:44:02;;;;;;;14.07;4.60;;;;;;;13.99;61.20;102243.41;5068509;28;20028;-69
2023/05/24 09:46:28;;;;;;;14.15;4.47;;;;;;;14.06;60.16;102240.66;5080279;28;20492;-69
2023/05/24 09:48:58;;;;;;;17.60;5.32;;;;;;;14.27;60.37;102242.25;5087523;28;20024;-69
2023/05/24 09:51:24;;;;;;;15.50;4.65;;;;;;;14.33;59.52;102238.66;5088330;28;20028;-69
2023/05/24 09:53:51;;;;;;;15.95;4.47;;;;;;;14.31;59.33;102238.03;5048582;28;20688;-68
2023/05/24 09:56:17;;;;;;;17.63;4.75;;;;;;;14.31;59.32;102238.03;5047940;28;20053;-68
2023/05/24 09:58:44;;;;;;;11.15;3.72;;;;;;;14.39;56.86;102238.81;5048294;28;20025;-68
2023/05/24 10:01:11;;;;;;;18.27;4.28;;;;;;;14.39;56.07;102234.25;5045612;28;20041;-67
2023/05/24 10:03:37;;;;;;;17.65;4.78;;;;;;;14.39;55.53;102238.81;5045706;28;20074;-68
2023/05/24 10:06:06;;;;;;;15.50;4.50;;;;;;;14.67;57.96;102231.19;5067731;28;20024;-68
2023/05/24 10:08:33;;;;;;;12.65;3.78;;;;;;;14.75;55.82;102242.88;5054776;28;20468;-67
2023/05/24 10:11:00;;;;;;;13.02;4.13;;;;;;;14.63;55.23;102240.00;5055137;28;20044;-68
2023/05/24 10:13:25;;;;;;;14.25;4.03;;;;;;;14.65;55.44;102233.28;5054603;28;20476;-68
2023/05/24 10:15:50;;;;;;;14.20;4.28;;;;;;;14.64;56.84;102237.06;5054752;28;20087;-68
2023/05/24 10:18:17;;;;;;;11.40;4.20;;;;;;;14.79;56.60;102242.22;5050794;28;20030;-68
2023/05/24 10:20:43;;;;;;;12.88;4.53;;;;;;;14.85;56.53;102233.16;5034611;28;20448;-68
2023/05/24 10:23:09;;;;;;;15.75;4.68;;;;;;;14.89;56.56;102236.28;5041055;28;20037;-67
2023/05/24 10:25:39;;;;;;;14.98;4.25;;;;;;;14.97;56.02;102227.00;5042805;28;20037;-70
2023/05/24 10:28:08;;;;;;;14.80;4.82;;;;;;;14.94;55.52;102225.56;5035591;28;20040;-72
2023/05/24 10:30:52;;;;;;;15.18;4.68;;;;;;;14.99;54.30;102231.19;5053196;28;20372;-68
2023/05/24 10:33:20;;;;;;;12.88;4.20;;;;;;;15.14;54.93;102225.41;5054280;28;20090;-68
2023/05/24 10:35:46;;;;;;;13.02;4.25;;;;;;;15.32;54.59;102221.88;5047428;28;20495;-68
2023/05/24 10:38:11;;;;;;;13.02;4.03;;;;;;;15.42;52.19;102224.94;5054316;28;20025;-68
2023/05/24 10:40:44;;;;;;;14.43;3.83;;;;;;;15.53;52.19;102230.72;5054062;28;20033;-68
2023/05/24 10:43:09;;;;;;;13.27;4.32;;;;;;;15.82;52.17;102221.03;5054140;28;20197;-68
2023/05/24 10:45:36;;;;;;;13.02;3.67;;;;;;;15.95;53.03;102225.50;5053878;28;20512;-68
2023/05/24 10:48:11;;;;;;;13.45;3.97;;;;;;;15.65;52.29;102231.66;5050799;28;20461;-69
2023/05/24 10:50:37;;;;;;;14.68;4.50;;;;;;;15.54;53.04;102218.78;5033892;28;20191;-69
2023/05/24 10:53:12;;;;;;;15.50;4.55;;;;;;;15.47;54.16;102224.28;5033725;28;20084;-69
2023/05/24 10:55:52;;;;;;;12.23;3.97;;;;;;;15.34;54.77;102219.78;5033115;28;20057;-69
2023/05/24 10:58:17;;;;;;;16.05;4.60;;;;;;;15.23;54.69;102223.22;5044291;28;20447;-69
2023/05/24 11:00:44;;;;;;;14.07;4.47;;;;;;;15.11;55.09;102216.84;5051359;28;20087;-69
2023/05/24 11:03:11;;;;;;;13.82;4.30;;;;;;;15.17;56.29;102218.66;5047408;28;20039;-74
2023/05/24 11:05:45;;;;;;;15.20;4.53;;;;;;;15.13;55.55;102225.66;5050716;28;20345;-68
2023/05/24 11:08:10;;;;;;;13.57;4.20;;;;;;;15.13;55.53;102212.84;5053838;28;20028;-69
2023/05/24 11:10:36;;;;;;;12.73;4.13;;;;;;;15.14;55.16;102219.97;5053166;28;20032;-69
2023/05/24 11:13:02;;;;;;;16.30;4.15;;;;;;;15.12;55.96;102215.78;5051529;28;20536;-73
2023/05/24 11:15:29;;;;;;;12.52;3.92;;;;;;;15.14;55.11;102216.38;5044214;28;20052;-69
2023/05/24 11:18:11;;;;;;;13.60;4.20;;;;;;;15.19;55.01;102220.13;5052314;28;20036;-69
2023/05/24 11:20:37;;;;;;;13.35;4.28;;;;;;;15.08;54.34;102226.28;5032718;28;20136;-68
2023/05/24 11:23:03;;;;;;;10.80;4.07;;;;;;;15.01;54.37;102223.63;5033283;28;20104;-69
2023/05/24 11:25:28;;;;;;;11.70;3.65;;;;;;;15.07;54.31;102222.72;5033474;28;20025;-68
2023/05/24 11:27:57;;;;;;;13.00;4.28;;;;;;;15.13;54.15;102222.91;5037289;28;20021;-69
2023/05/24 11:30:23;;;;;;;15.90;3.90;;;;;;;15.10;52.74;102226.91;5050995;28;20043;-69
2023/05/24 11:32:49;;;;;;;14.20;4.47;;;;;;;15.11;53.88;102216.84;5053109;28;20392;-69
2023/05/24 11:35:14;;;;;;;14.38;4.35;;;;;;;15.03;53.49;102224.22;5053072;28;20383;-69
2023/05/24 11:37:41;;;;;;;14.20;4.30;;;;;;;15.14;54.84;102219.97;5053216;28;20064;-69
2023/05/24 11:40:09;;;;;;;14.27;3.95;;;;;;;15.18;54.50;102226.63;5053161;28;20028;-68
2023/05/24 11:42:36;;;;;;;12.48;4.50;;;;;;;15.12;54.33;102216.59;5052786;28;20021;-69
2023/05/24 11:45:07;;;;;;;11.60;3.92;;;;;;;15.10;54.36;102223.34;5046829;28;20552;-69
2023/05/24 11:47:37;;;;;;;15.70;4.10;;;;;;;15.21;54.93;102211.72;5034728;28;20075;-69
2023/05/24 11:50:02;;;;;;;15.35;3.88;;;;;;;15.34;54.34;102214.34;5033063;28;20034;-69
2023/05/24 11:52:28;;;;;;;20.65;4.07;;;;;;;15.39;52.45;102211.75;5033293;28;20092;-69
2023/05/24 11:54:53;;;;;;;11.63;3.80;;;;;;;15.54;52.61;102210.59;5033067;28;20033;-68
2023/05/24 11:57:26;;;;;;;13.30;4.30;;;;;;;15.76;53.05;102209.09;5033531;28;20025;-69
2023/05/24 11:59:52;;;;;;;15.48;4.13;;;;;;;15.92;54.32;102207.69;5032793;28;20477;-69
2023/05/24 12:02:18;;;;;;;13.60;3.88;;;;;;;15.94;53.15;102205.56;5030058;28;20072;-69
2023/05/24 12:04:43;;;;;;;12.82;4.22;;;;;;;15.94;53.77;102210.19;5033512;28;20064;-68
2023/05/24 12:07:11;;;;;;;15.45;4.22;;;;;;;15.83;52.79;102205.50;5033204;28;20052;-69
2023/05/24 12:09:37;;;;;;;13.63;4.30;;;;;;;15.65;53.48;102209.00;5042858;28;20031;-69
2023/05/24 12:12:02;;;;;;;15.75;4.30;;;;;;;15.63;54.50;102206.50;5052960;28;20032;-69
2023/05/24 12:14:29;;;;;;;16.90;4.45;;;;;;;15.67;53.63;102215.06;5052951;28;20036;-69
2023/05/24 12:16:59;;;;;;;13.30;4.40;;;;;;;15.63;53.43;102206.50;5050525;28;20037;-69
2023/05/24 12:19:29;;;;;;;17.42;4.22;;;;;;;15.59;54.03;102199.81;5052837;28;20124;-70
2023/05/24 12:21:56;;;;;;;17.98;4.38;;;;;;;15.58;54.36;102203.63;5052253;28;20419;-69
2023/05/24 12:24:23;;;;;;;12.55;3.75;;;;;;;15.66;53.77;102214.25;5052991;28;20064;-70
2023/05/24 12:26:49;;;;;;;10.02;3.70;;;;;;;15.65;54.48;102209.81;5052214;28;20037;-70
2023/05/24 12:29:15;;;;;;;15.35;4.07;;;;;;;15.60;53.91;102210.50;5052661;28;20029;-70
2023/05/24 12:31:46;;;;;;;14.98;4.28;;;;;;;15.61;54.25;102208.63;5039112;28;20083;-70
2023/05/24 12:34:16;;;;;;;13.25;3.92;;;;;;;15.60;54.72;102209.69;5037148;28;20508;-70
2023/05/24 12:36:42;;;;;;;10.35;3.78;;;;;;;15.56;54.86;102201.09;5051653;28;20025;-70
2023/05/24 12:39:16;;;;;;;15.02;4.38;;;;;;;15.59;55.08;102205.28;5052542;28;20060;-71
2023/05/24 12:41:42;;;;;;;14.20;4.18;;;;;;;15.57;54.66;102208.22;5050144;28;20132;-70
2023/05/24 12:44:09;;;;;;;12.20;4.47;;;;;;;15.40;54.66;102207.97;5052533;28;20528;-70
2023/05/24 12:46:35;;;;;;;14.27;4.15;;;;;;;15.39;54.85;102203.56;5052255;28;20522;-70
2023/05/24 12:49:03;;;;;;;12.88;4.70;;;;;;;15.32;55.20;102205.53;5041250;28;20037;-73
2023/05/24 12:51:29;;;;;;;16.00;4.35;;;;;;;15.32;54.91;102194.63;5032534;28;20033;-75
2023/05/24 12:53:54;;;;;;;12.77;3.90;;;;;;;15.35;56.08;102205.09;5034291;28;20025;-69
2023/05/24 12:56:20;;;;;;;12.68;4.60;;;;;;;15.37;55.78;102208.44;5031726;28;20142;-68
2023/05/24 12:58:46;;;;;;;15.20;4.40;;;;;;;15.52;57.09;102202.63;5040625;28;20033;-72
2023/05/24 13:01:11;;;;;;;13.55;4.22;;;;;;;15.59;55.78;102197.09;5031760;28;20160;-71
2023/05/24 13:03:38;;;;;;;11.85;4.50;;;;;;;15.67;56.42;102185.91;5042916;28;20064;-71
2023/05/24 13:06:03;;;;;;;14.82;4.32;;;;;;;15.73;54.68;102190.44;5032630;28;20523;-70
2023/05/24 13:08:31;;;;;;;15.75;4.07;;;;;;;15.75;53.98;102192.94;5032088;28;20029;-76
2023/05/24 13:10:56;;;;;;;11.75;3.90;;;;;;;15.81;53.48;102191.25;5030799;28;20037;-72
2023/05/24 13:13:23;;;;;;;13.07;4.10;;;;;;;15.94;54.23;102196.53;5032310;28;20384;-70
2023/05/24 13:15:48;;;;;;;11.38;3.90;;;;;;;15.93;54.09;102198.44;5041712;28;20029;-72
2023/05/24 13:18:14;;;;;;;12.32;3.97;;;;;;;15.88;53.80;102198.28;5040080;28;20109;-72
2023/05/24 13:20:40;;;;;;;13.30;3.83;;;;;;;15.87;53.85;102196.63;5041541;28;20045;-72
2023/05/24 13:23:06;;;;;;;11.40;4.15;;;;;;;15.92;54.26;102187.75;5052070;28;20033;-71
2023/05/24 13:25:31;;;;;;;12.68;4.20;;;;;;;15.93;54.93;102192.97;5049261;28;20033;-70
2023/05/24 13:27:56;;;;;;;13.35;4.43;;;;;;;15.88;54.94;102189.25;5051004;28;20024;-73
2023/05/24 13:30:26;;;;;;;14.05;4.43;;;;;;;15.84;54.57;102190.78;5052095;28;20519;-71
2023/05/24 13:32:52;;;;;;;15.18;4.43;;;;;;;15.81;55.19;102188.50;5051862;28;20029;-69
2023/05/24 13:35:18;;;;;;;19.85;4.47;;;;;;;15.84;55.10;102190.78;5052054;28;20361;-69
2023/05/24 13:37:43;;;;;;;12.82;3.92;;;;;;;15.75;52.50;102199.22;5047477;28;20071;-69
2023/05/24 13:40:09;;;;;;;12.55;3.63;;;;;;;15.79;54.31;102188.72;5040648;28;20039;-69
2023/05/24 13:42:35;;;;;;;12.45;3.90;;;;;;;15.74;54.09;102194.81;5053403;28;20108;-69
2023/05/24 13:45:02;;;;;;;9.82;3.63;;;;;;;15.78;53.85;102192.53;5050141;28;20120;-68
2023/05/24 13:47:27;;;;;;;12.18;3.85;;;;;;;15.75;53.32;102192.94;5055307;28;20035;-68
2023/05/24 13:49:53;;;;;;;13.90;4.15;;;;;;;15.84;54.62;102188.06;5054896;28;20439;-68
2023/05/24 13:52:18;;;;;;;15.27;4.22;;;;;;;15.88;53.45;102195.56;5045634;28;20112;-70
2023/05/24 13:54:43;;;;;;;15.25;4.32;;;;;;;15.89;53.33;102185.47;5054252;28;20110;-70
2023/05/24 13:57:09;;;;;;;13.05;4.05;;;;;;;15.98;54.29;102186.00;5047110;28;20056;-68
2023/05/24 13:59:34;;;;;;;10.85;4.07;;;;;;;16.05;54.81;102186.75;5048263;28;20040;-72
2023/05/24 14:02:00;;;;;;;11.68;3.58;;;;;;;16.16;52.72;102193.34;5043135;28;20055;-69
2023/05/24 14:04:25;;;;;;;10.10;3.40;;;;;;;16.48;51.21;102188.47;5035226;28;20029;-73
2023/05/24 14:06:51;;;;;;;11.70;3.80;;;;;;;16.56;50.54;102188.16;5033166;28;20040;-70
2023/05/24 14:09:16;;;;;;;13.02;4.00;;;;;;;16.66;50.77;102182.94;5036527;28;20094;-72
2023/05/24 14:11:44;;;;;;;12.80;3.90;;;;;;;16.96;50.91;102186.75;5045581;28;20033;-71
2023/05/24 14:14:09;;;;;;;13.75;4.00;;;;;;;17.26;50.35;102183.91;5051085;28;20063;-71
2023/05/24 14:16:35;;;;;;;11.50;4.18;;;;;;;17.40;49.41;102187.25;5053310;28;20021;-71
2023/05/24 14:19:00;;;;;;;10.27;3.60;;;;;;;17.45;48.82;102189.25;5037586;28;20037;-71
2023/05/24 14:21:26;;;;;;;12.73;3.78;;;;;;;17.61;48.21;102183.06;5034656;28;20037;-71
2023/05/24 14:23:51;;;;;;;10.40;3.72;;;;;;;17.40;48.18;102181.78;5034351;28;20025;-71
2023/05/24 14:26:18;;;;;;;9.73;3.38;;;;;;;17.28;48.68;102183.69;5035511;28;20053;-72
2023/05/24 14:28:43;;;;;;;11.73;4.00;;;;;;;17.45;48.49;102181.91;5033874;28;20055;-71
2023/05/24 14:31:08;;;;;;;12.75;3.65;;;;;;;17.49;47.75;102177.59;5034613;28;20022;-70
2023/05/24 14:33:34;;;;;;;9.30;3.53;;;;;;;17.64;47.61;102174.38;5040427;28;20361;-70
2023/05/24 14:35:59;;;;;;;11.23;3.80;;;;;;;17.84;47.99;102173.16;5054294;28;20111;-71
2023/05/24 14:38:25;;;;;;;9.55;3.60;;;;;;;17.94;46.65;102170.66;5054567;28;20029;-70
2023/05/24 14:40:50;;;;;;;9.75;3.15;;;;;;;17.96;46.16;102173.16;5053797;28;20048;-69
2023/05/24 14:43:16;;;;;;;8.57;3.22;;;;;;;17.99;45.64;102170.75;5039990;28;20038;-72
2023/05/24 14:45:42;;;;;;;9.35;3.42;;;;;;;18.16;45.81;102170.00;5041293;28;20033;-69
2023/05/24 14:48:10;;;;;;;11.25;3.40;;;;;;;18.24;45.54;102162.22;5054622;28;20491;-72
2023/05/24 14:50:37;;;;;;;11.02;4.03;;;;;;;18.00;46.13;102171.59;5052125;28;20218;-74
2023/05/24 14:53:08;;;;;;;7.90;3.40;;;;;;;17.83;44.98;102175.06;5051700;28;20071;-73
2023/05/24 14:55:37;;;;;;;7.97;3.38;;;;;;;17.65;45.82;102173.31;5056792;28;20052;-72
2023/05/24 14:58:03;;;;;;;9.98;3.13;;;;;;;17.58;46.62;102167.13;5046912;28;20362;-75
2023/05/24 15:00:29;;;;;;;9.10;3.50;;;;;;;17.77;46.33;102165.09;5032963;28;20037;-73
2023/05/24 15:02:54;;;;;;;10.40;3.20;;;;;;;18.14;46.60;102164.75;5033065;28;20029;-69
2023/05/24 15:05:19;;;;;;;9.55;3.78;;;;;;;18.29;47.13;102157.91;5034659;28;20370;-69
2023/05/24 15:07:45;;;;;;;10.75;3.58;;;;;;;18.23;46.47;102160.53;5033278;28;20030;-68
2023/05/24 15:10:11;;;;;;;10.65;4.20;;;;;;;18.14;47.34;102166.69;5035520;28;20047;-71
2023/05/24 15:12:36;;;;;;;12.75;3.80;;;;;;;17.95;45.95;102160.53;5042541;28;20061;-73
2023/05/24 15:15:03;;;;;;;10.60;3.63;;;;;;;17.80;46.27;102175.56;5039822;28;20076;-69
2023/05/24 15:17:29;;;;;;;10.90;3.63;;;;;;;17.60;46.76;102172.38;5047140;28;20471;-67
2023/05/24 15:19:55;;;;;;;13.75;4.18;;;;;;;17.41;48.15;102167.03;5053569;28;20052;-68
2023/05/24 15:22:20;;;;;;;8.73;3.40;;;;;;;17.24;47.45;102171.53;5052768;28;20025;-68
2023/05/24 15:24:46;;;;;;;11.88;3.17;;;;;;;17.09;47.65;102172.84;5053456;28;20107;-74
2023/05/24 15:27:11;;;;;;;9.63;3.58;;;;;;;16.94;48.60;102164.25;5054253;28;20029;-72
2023/05/24 15:29:36;;;;;;;12.18;3.97;;;;;;;16.93;48.92;102168.09;5043796;28;20079;-73
2023/05/24 15:32:02;;;;;;;12.85;4.15;;;;;;;16.82;48.71;102161.50;5047508;28;20047;-71
2023/05/24 15:34:27;;;;;;;15.25;4.85;;;;;;;16.77;49.13;102172.28;5037522;28;20029;-69
2023/05/24 15:36:52;;;;;;;8.15;3.70;;;;;;;16.65;48.68;102175.84;5033099;28;20484;-69
2023/05/24 15:39:19;;;;;;;11.32;4.28;;;;;;;16.58;49.46;102179.75;5032875;28;20086;-70
2023/05/24 15:41:44;;;;;;;14.18;4.53;;;;;;;16.45;49.41;102170.66;5032628;28;20451;-71
2023/05/24 15:44:09;;;;;;;11.48;3.50;;;;;;;16.37;49.61;102173.72;5031730;28;20033;-73
2023/05/24 15:46:35;;;;;;;6.50;3.30;;;;;;;16.30;49.79;102173.81;5038113;28;20064;-68
2023/05/24 15:49:00;;;;;;;8.95;3.60;;;;;;;16.19;50.94;102179.22;5039192;28;20451;-74
2023/05/24 15:51:26;;;;;;;11.02;4.13;;;;;;;16.13;51.40;102175.50;5041429;28;20021;-71
2023/05/24 15:53:51;;;;;;;12.43;4.47;;;;;;;16.17;53.19;102178.59;5052318;28;20037;-73
2023/05/24 15:56:16;;;;;;;14.00;5.07;;;;;;;16.18;53.40;102180.28;5060837;28;20111;-67
2023/05/24 15:58:42;;;;;;;14.57;4.32;;;;;;;16.17;52.91;102168.53;5070268;28;20471;-68
2023/05/24 16:01:07;;;;;;;16.45;5.68;;;;;;;16.10;52.72;102179.53;5038590;28;20119;-70
2023/05/24 16:03:32;;;;;;;12.13;4.28;;;;;;;16.07;52.48;102180.00;5063109;28;20388;-68
2023/05/24 16:05:58;;;;;;;15.38;4.78;;;;;;;16.02;52.46;102181.72;5044952;28;20078;-70
